Terminal Aerodrome Forecast
Issued by NWS

Home | Current Version | Previous Version | Text Only | Print | Product List | Glossary On
Versions: 1 2 3 4 5 6 7 8 9 10 11 12 13 14 15 16 17 18 19 20
533
FTUS43 KJKL 301735
TAFSJS
TAF
KSJS 301735Z 3018/3118 26005KT P6SM VCTS SCT030 BKN050CB
     FM310200 00000KT P6SM SCT008 BKN250
     FM310800 00000KT 5SM BR SCT001 BKN130
     FM311500 VRB03KT P6SM SCT015 BKN050=

USA.gov is the U.S. government's official web portal to all federal, state and local government web resources and services.